createdAt,value
2022-09-26T00:00:10.375Z,1002.56
2022-09-26T00:01:10.463Z,1002.56
2022-09-26T00:02:10.395Z,1002.55
2022-09-26T00:03:10.348Z,1002.52
2022-09-26T00:04:10.380Z,1002.54
2022-09-26T00:05:10.340Z,1002.56
2022-09-26T00:06:10.338Z,1002.52
2022-09-26T00:07:10.291Z,1002.53
2022-09-26T00:08:10.311Z,1002.52
2022-09-26T00:09:10.289Z,1002.54
2022-09-26T00:10:10.311Z,1002.53
2022-09-26T00:11:10.270Z,1002.44
2022-09-26T00:12:10.268Z,1002.46
2022-09-26T00:13:10.257Z,1002.48
2022-09-26T00:14:10.224Z,1002.50
2022-09-26T00:15:10.242Z,1002.50
2022-09-26T00:16:10.363Z,1002.44
2022-09-26T00:17:10.280Z,1002.48
2022-09-26T00:18:10.190Z,1002.43
2022-09-26T00:19:10.219Z,1002.41
2022-09-26T00:20:10.160Z,1002.41
2022-09-26T00:21:10.149Z,1002.40
2022-09-26T00:22:10.151Z,1002.34
2022-09-26T00:23:10.137Z,1002.36
2022-09-26T00:24:10.152Z,1002.34
2022-09-26T00:25:10.106Z,1002.36
2022-09-26T00:26:10.097Z,1002.37
2022-09-26T00:27:10.090Z,1002.35
2022-09-26T00:28:10.085Z,1002.36
2022-09-26T00:29:10.124Z,1002.33
2022-09-26T00:30:10.061Z,1002.34
2022-09-26T00:31:10.160Z,1002.34
2022-09-26T00:32:10.033Z,1002.32
2022-09-26T00:33:10.029Z,1002.37
2022-09-26T00:34:10.018Z,1002.35
2022-09-26T00:35:10.028Z,1002.35
2022-09-26T00:36:09.989Z,1002.34
2022-09-26T00:37:09.978Z,1002.37
2022-09-26T00:38:09.972Z,1002.35
2022-09-26T00:39:10.058Z,1002.35
2022-09-26T00:40:10.097Z,1002.36
2022-09-26T00:41:09.967Z,1002.31
2022-09-26T00:42:09.978Z,1002.35
2022-09-26T00:43:09.949Z,1002.34
2022-09-26T00:44:09.895Z,1002.33
2022-09-26T00:45:09.895Z,1002.32
2022-09-26T00:46:09.902Z,1002.33
2022-09-26T00:47:09.900Z,1002.35
2022-09-26T00:48:09.854Z,1002.34
2022-09-26T00:49:09.840Z,1002.33
2022-09-26T00:50:09.833Z,1002.31
2022-09-26T00:51:09.830Z,1002.36
2022-09-26T00:52:09.853Z,1002.37
2022-09-26T00:53:09.801Z,1002.34
2022-09-26T00:54:09.785Z,1002.33
2022-09-26T00:55:09.770Z,1002.30
2022-09-26T00:56:09.817Z,1002.35
2022-09-26T00:57:09.811Z,1002.28
2022-09-26T00:58:09.744Z,1002.32
2022-09-26T00:59:09.746Z,1002.27
2022-09-26T01:00:09.747Z,1002.25
2022-09-26T01:01:09.839Z,1002.29
2022-09-26T01:02:09.919Z,1002.22
2022-09-26T01:03:09.681Z,1002.21
2022-09-26T01:04:09.679Z,1002.20
2022-09-26T01:05:09.668Z,1002.15
2022-09-26T01:06:09.678Z,1002.23
2022-09-26T01:07:09.682Z,1002.20
2022-09-26T01:08:09.643Z,1002.19
2022-09-26T01:09:09.622Z,1002.20
2022-09-26T01:10:09.637Z,1002.20
2022-09-26T01:11:13.571Z,1002.23
2022-09-26T01:12:10.598Z,1002.14
2022-09-26T01:13:09.586Z,1002.13
2022-09-26T01:14:09.578Z,1002.12
2022-09-26T01:15:09.564Z,1002.09
2022-09-26T01:16:09.634Z,1002.10
2022-09-26T01:17:09.547Z,1002.09
2022-09-26T01:18:09.530Z,1002.09
2022-09-26T01:19:09.523Z,1002.08
2022-09-26T01:20:09.492Z,1002.01
2022-09-26T01:21:09.487Z,1002.07
2022-09-26T01:22:09.494Z,1002.05
2022-09-26T01:23:09.468Z,1002.02
2022-09-26T01:24:09.462Z,1002.02
2022-09-26T01:25:09.460Z,1002.02
2022-09-26T01:26:09.451Z,1002.06
2022-09-26T01:27:09.426Z,1002.04
2022-09-26T01:28:09.430Z,1002.02
2022-09-26T01:29:09.410Z,1002.03
2022-09-26T01:30:09.391Z,1002.00
2022-09-26T01:31:09.425Z,1001.97
2022-09-26T01:32:09.387Z,1001.99
2022-09-26T01:33:09.353Z,1001.96
2022-09-26T01:34:09.344Z,1001.93
2022-09-26T01:35:09.334Z,1001.94
2022-09-26T01:36:09.341Z,1001.92
2022-09-26T01:37:09.332Z,1001.91
2022-09-26T01:38:09.314Z,1001.88
2022-09-26T01:39:09.335Z,1001.90
2022-09-26T01:40:09.288Z,1001.91
2022-09-26T01:41:09.286Z,1001.90
2022-09-26T01:42:09.272Z,1001.88
2022-09-26T01:43:09.250Z,1001.87
2022-09-26T01:44:09.263Z,1001.87
2022-09-26T01:45:09.222Z,1001.85
2022-09-26T01:46:09.327Z,1001.82
2022-09-26T01:47:09.208Z,1001.79
2022-09-26T01:48:09.216Z,1001.75
2022-09-26T01:49:09.251Z,1001.73
2022-09-26T01:50:09.172Z,1001.75
2022-09-26T01:51:09.156Z,1001.74
2022-09-26T01:52:09.153Z,1001.77
2022-09-26T01:53:09.143Z,1001.73
2022-09-26T01:54:09.154Z,1001.75
2022-09-26T01:55:09.110Z,1001.78
2022-09-26T01:56:09.101Z,1001.78
2022-09-26T01:57:09.100Z,1001.81
2022-09-26T01:58:09.094Z,1001.81
2022-09-26T01:59:09.195Z,1001.79
2022-09-26T02:00:09.083Z,1001.82
2022-09-26T02:01:09.234Z,1001.76
2022-09-26T02:02:09.120Z,1001.79
2022-09-26T02:03:09.029Z,1001.79
2022-09-26T02:04:09.026Z,1001.77
2022-09-26T02:05:09.031Z,1001.78
2022-09-26T02:06:09.012Z,1001.77
2022-09-26T02:07:08.972Z,1001.78
2022-09-26T02:08:08.968Z,1001.71
2022-09-26T02:09:09.014Z,1001.71
2022-09-26T02:10:08.951Z,1001.69
2022-09-26T02:11:08.970Z,1001.66
2022-09-26T02:12:08.930Z,1001.67
2022-09-26T02:13:08.933Z,1001.65
2022-09-26T02:14:08.912Z,1001.60
2022-09-26T02:15:08.901Z,1001.63
2022-09-26T02:16:08.993Z,1001.57
2022-09-26T02:17:08.906Z,1001.62
2022-09-26T02:18:08.865Z,1001.58
2022-09-26T02:19:08.940Z,1001.57
2022-09-26T02:20:08.841Z,1001.56
2022-09-26T02:21:08.847Z,1001.53
2022-09-26T02:22:08.812Z,1001.54
2022-09-26T02:23:08.800Z,1001.51
2022-09-26T02:24:08.795Z,1001.50
2022-09-26T02:25:08.778Z,1001.53
2022-09-26T02:26:08.784Z,1001.53
2022-09-26T02:27:08.766Z,1001.54
2022-09-26T02:28:08.756Z,1001.56
2022-09-26T02:29:08.819Z,1001.54
2022-09-26T02:30:08.721Z,1001.54
2022-09-26T02:31:08.727Z,1001.53
2022-09-26T02:32:08.822Z,1001.52
2022-09-26T02:33:08.693Z,1001.57
2022-09-26T02:34:08.680Z,1001.55
2022-09-26T02:35:08.663Z,1001.50
2022-09-26T02:36:08.659Z,1001.46
2022-09-26T02:37:08.643Z,1001.42
2022-09-26T02:38:08.643Z,1001.42
2022-09-26T02:39:08.672Z,1001.40
2022-09-26T02:40:08.610Z,1001.38
2022-09-26T02:41:08.601Z,1001.39
2022-09-26T02:42:08.599Z,1001.34
2022-09-26T02:43:08.610Z,1001.37
2022-09-26T02:44:08.561Z,1001.34
2022-09-26T02:45:08.559Z,1001.33
2022-09-26T02:46:08.587Z,1001.35
2022-09-26T02:47:08.532Z,1001.29
2022-09-26T02:48:08.535Z,1001.31
2022-09-26T02:49:08.575Z,1001.29
2022-09-26T02:50:08.506Z,1001.27
2022-09-26T02:51:08.485Z,1001.28
2022-09-26T02:52:08.482Z,1001.24
2022-09-26T02:53:08.469Z,1001.22
2022-09-26T02:54:08.472Z,1001.19
2022-09-26T02:55:08.443Z,1001.22
2022-09-26T02:56:08.429Z,1001.15
2022-09-26T02:57:08.417Z,1001.20
2022-09-26T02:58:08.427Z,1001.17
2022-09-26T02:59:08.401Z,1001.20
2022-09-26T03:00:08.407Z,1001.19
2022-09-26T03:01:08.431Z,1001.24
2022-09-26T03:02:08.369Z,1001.19
2022-09-26T03:03:08.357Z,1001.18
2022-09-26T03:04:08.366Z,1001.14
2022-09-26T03:05:08.377Z,1001.15
2022-09-26T03:06:08.363Z,1001.16
2022-09-26T03:07:08.306Z,1001.16
2022-09-26T03:08:08.308Z,1001.12
2022-09-26T03:09:08.368Z,1001.16
2022-09-26T03:10:08.286Z,1001.15
2022-09-26T03:11:08.264Z,1001.21
2022-09-26T03:12:08.275Z,1001.14
2022-09-26T03:13:08.240Z,1001.17
2022-09-26T03:14:08.235Z,1001.14
2022-09-26T03:15:08.226Z,1001.12
2022-09-26T03:16:08.282Z,1001.09
2022-09-26T03:17:08.225Z,1001.08
2022-09-26T03:18:08.184Z,1001.10
2022-09-26T03:19:08.170Z,1001.12
2022-09-26T03:20:08.265Z,1001.09
2022-09-26T03:21:08.162Z,1001.10
2022-09-26T03:22:08.139Z,1001.05
2022-09-26T03:23:08.143Z,1001.06
2022-09-26T03:24:08.125Z,1001.07
2022-09-26T03:25:08.117Z,1001.11
2022-09-26T03:26:08.098Z,1001.11
2022-09-26T03:27:08.091Z,1001.13
2022-09-26T03:28:08.095Z,1001.10
2022-09-26T03:29:08.079Z,1001.15
2022-09-26T03:30:08.053Z,1001.13
2022-09-26T03:31:08.051Z,1001.09
2022-09-26T03:32:08.136Z,1001.11
2022-09-26T03:33:08.032Z,1001.12
2022-09-26T03:34:08.037Z,1001.12
2022-09-26T03:35:08.002Z,1001.09
2022-09-26T03:36:08.092Z,1001.10
2022-09-26T03:37:07.971Z,1001.08
2022-09-26T03:38:11.329Z,1001.02
2022-09-26T03:39:08.988Z,1001.03
2022-09-26T03:40:07.947Z,1001.00
2022-09-26T03:41:07.946Z,1000.95
2022-09-26T03:42:07.930Z,1000.97
2022-09-26T03:43:07.918Z,1000.94
2022-09-26T03:44:07.918Z,1000.95
2022-09-26T03:45:07.891Z,1000.91
2022-09-26T03:46:07.958Z,1000.88
2022-09-26T03:47:07.869Z,1000.88
2022-09-26T03:48:07.854Z,1000.86
2022-09-26T03:49:07.844Z,1000.83
2022-09-26T03:50:07.847Z,1000.83
2022-09-26T03:51:07.841Z,1000.84
2022-09-26T03:52:07.846Z,1000.80
2022-09-26T03:53:07.797Z,1000.82
2022-09-26T03:54:07.794Z,1000.86
2022-09-26T03:55:07.789Z,1000.87
2022-09-26T03:56:07.774Z,1000.84
2022-09-26T03:57:07.766Z,1000.90
2022-09-26T03:58:07.745Z,1000.90
2022-09-26T03:59:07.729Z,1000.90
2022-09-26T04:00:07.763Z,1000.83
2022-09-26T04:01:07.806Z,1000.86
2022-09-26T04:02:07.756Z,1000.83
2022-09-26T04:03:07.686Z,1000.81
2022-09-26T04:04:07.676Z,1000.79
2022-09-26T04:05:07.664Z,1000.78
2022-09-26T04:06:07.662Z,1000.77
2022-09-26T04:07:07.668Z,1000.78
2022-09-26T04:08:07.645Z,1000.74
2022-09-26T04:09:07.653Z,1000.76
2022-09-26T04:10:07.614Z,1000.72
2022-09-26T04:11:07.613Z,1000.72
2022-09-26T04:12:07.588Z,1000.68
2022-09-26T04:13:07.588Z,1000.68
2022-09-26T04:14:07.576Z,1000.69
2022-09-26T04:15:07.585Z,1000.69
2022-09-26T04:16:07.615Z,1000.64
2022-09-26T04:17:07.533Z,1000.63
2022-09-26T04:18:07.526Z,1000.62
2022-09-26T04:19:07.519Z,1000.63
2022-09-26T04:20:07.498Z,1000.61
2022-09-26T04:21:10.005Z,1000.62
2022-09-26T04:22:07.482Z,1000.64
2022-09-26T04:23:07.464Z,1000.61
2022-09-26T04:24:07.469Z,1000.61
2022-09-26T04:25:07.473Z,1000.60
2022-09-26T04:26:07.439Z,1000.58
2022-09-26T04:27:07.438Z,1000.59
2022-09-26T04:28:07.417Z,1000.59
2022-09-26T04:29:07.402Z,1000.57
2022-09-26T04:30:07.399Z,1000.56
2022-09-26T04:31:07.522Z,1000.54
2022-09-26T04:32:07.391Z,1000.52
2022-09-26T04:33:07.364Z,1000.55
2022-09-26T04:34:07.355Z,1000.55
2022-09-26T04:35:07.351Z,1000.56
2022-09-26T04:36:07.336Z,1000.64
2022-09-26T04:37:07.318Z,1000.58
2022-09-26T04:38:07.310Z,1000.57
2022-09-26T04:39:07.297Z,1000.58
2022-09-26T04:40:07.304Z,1000.59
2022-09-26T04:41:07.395Z,1000.60
2022-09-26T04:42:07.253Z,1000.60
2022-09-26T04:43:07.250Z,1000.60
2022-09-26T04:44:07.242Z,1000.62
2022-09-26T04:45:07.221Z,1000.63
2022-09-26T04:46:07.296Z,1000.60
2022-09-26T04:47:07.221Z,1000.65
2022-09-26T04:48:07.196Z,1000.61
2022-09-26T04:49:07.184Z,1000.61
2022-09-26T04:50:07.183Z,1000.59
2022-09-26T04:51:07.160Z,1000.57
2022-09-26T04:52:07.144Z,1000.53
2022-09-26T04:53:07.158Z,1000.52
2022-09-26T04:54:07.124Z,1000.47
2022-09-26T04:55:07.111Z,1000.48
2022-09-26T04:56:07.120Z,1000.51
2022-09-26T04:57:07.110Z,1000.50
2022-09-26T04:58:07.106Z,1000.46
2022-09-26T04:59:07.205Z,1000.56
2022-09-26T05:00:07.055Z,1000.56
2022-09-26T05:01:07.148Z,1000.54
2022-09-26T05:02:07.109Z,1000.56
2022-09-26T05:03:07.069Z,1000.56
2022-09-26T05:04:07.048Z,1000.57
2022-09-26T05:05:07.016Z,1000.56
2022-09-26T05:06:07.043Z,1000.58
2022-09-26T05:07:06.986Z,1000.55
2022-09-26T05:08:06.981Z,1000.56
2022-09-26T05:09:07.112Z,1000.53
2022-09-26T05:10:06.954Z,1000.52
2022-09-26T05:11:06.932Z,1000.49
2022-09-26T05:12:06.942Z,1000.49
2022-09-26T05:13:06.920Z,1000.48
2022-09-26T05:14:06.921Z,1000.52
2022-09-26T05:15:06.899Z,1000.49
2022-09-26T05:16:06.984Z,1000.51
2022-09-26T05:17:06.870Z,1000.48
2022-09-26T05:18:06.859Z,1000.49
2022-09-26T05:19:06.851Z,1000.48
2022-09-26T05:20:06.857Z,1000.48
2022-09-26T05:21:06.863Z,1000.45
2022-09-26T05:22:06.812Z,1000.46
2022-09-26T05:23:06.802Z,1000.42
2022-09-26T05:24:06.791Z,1000.49
2022-09-26T05:25:06.785Z,1000.48
2022-09-26T05:26:06.767Z,1000.48
2022-09-26T05:27:06.787Z,1000.44
2022-09-26T05:28:06.869Z,1000.43
2022-09-26T05:29:08.741Z,1000.45
2022-09-26T05:30:06.722Z,1000.42
2022-09-26T05:31:06.773Z,1000.44
2022-09-26T05:32:06.783Z,1000.48
2022-09-26T05:33:06.703Z,1000.46
2022-09-26T05:34:06.679Z,1000.47
2022-09-26T05:35:06.681Z,1000.46
2022-09-26T05:36:06.660Z,1000.46
2022-09-26T05:37:06.644Z,1000.46
2022-09-26T05:38:06.642Z,1000.51
2022-09-26T05:39:06.765Z,1000.47
2022-09-26T05:40:06.665Z,1000.43
2022-09-26T05:41:06.642Z,1000.46
2022-09-26T05:42:06.595Z,1000.42
2022-09-26T05:43:06.594Z,1000.46
2022-09-26T05:44:06.616Z,1000.46
2022-09-26T05:45:06.605Z,1000.49
2022-09-26T05:46:06.555Z,1000.47
2022-09-26T05:47:06.628Z,1000.46
2022-09-26T05:48:06.526Z,1000.44
2022-09-26T05:49:06.516Z,1000.48
2022-09-26T05:50:06.510Z,1000.43
2022-09-26T05:51:06.541Z,1000.42
2022-09-26T05:52:06.488Z,1000.41
2022-09-26T05:53:06.493Z,1000.38
2022-09-26T05:54:06.462Z,1000.36
2022-09-26T05:55:06.466Z,1000.39
2022-09-26T05:56:06.456Z,1000.41
2022-09-26T05:57:06.477Z,1000.39
2022-09-26T05:58:06.450Z,1000.34
2022-09-26T05:59:06.502Z,1000.35
2022-09-26T06:00:06.437Z,1000.37
2022-09-26T06:01:06.548Z,1000.36
2022-09-26T06:02:06.467Z,1000.37
2022-09-26T06:03:06.374Z,1000.34
2022-09-26T06:04:06.366Z,1000.37
2022-09-26T06:05:06.353Z,1000.38
2022-09-26T06:06:06.375Z,1000.40
2022-09-26T06:07:06.328Z,1000.36
2022-09-26T06:08:06.345Z,1000.35
2022-09-26T06:09:06.327Z,1000.38
2022-09-26T06:10:06.290Z,1000.39
2022-09-26T06:11:06.280Z,1000.41
2022-09-26T06:12:06.273Z,1000.37
2022-09-26T06:13:06.301Z,1000.39
2022-09-26T06:14:06.247Z,1000.37
2022-09-26T06:15:06.231Z,1000.36
2022-09-26T06:16:06.371Z,1000.35
2022-09-26T06:17:06.207Z,1000.32
2022-09-26T06:18:06.203Z,1000.31
2022-09-26T06:19:06.264Z,1000.32
2022-09-26T06:20:06.189Z,1000.29
2022-09-26T06:21:06.163Z,1000.27
2022-09-26T06:22:06.178Z,1000.29
2022-09-26T06:23:06.144Z,1000.28
2022-09-26T06:24:06.156Z,1000.28
2022-09-26T06:25:06.159Z,1000.26
2022-09-26T06:26:06.104Z,1000.29
2022-09-26T06:27:06.097Z,1000.29
2022-09-26T06:28:06.098Z,1000.27
2022-09-26T06:29:06.130Z,1000.29
2022-09-26T06:30:06.092Z,1000.31
2022-09-26T06:31:06.106Z,1000.29
2022-09-26T06:32:06.149Z,1000.27
2022-09-26T06:33:06.061Z,1000.28
2022-09-26T06:34:06.046Z,1000.16
2022-09-26T06:35:06.030Z,1000.20
2022-09-26T06:36:05.999Z,1000.18
2022-09-26T06:37:06.002Z,1000.16
2022-09-26T06:38:05.989Z,1000.16
2022-09-26T06:39:06.026Z,1000.17
2022-09-26T06:40:06.011Z,1000.13
2022-09-26T06:41:05.983Z,1000.12
2022-09-26T06:42:05.958Z,1000.14
2022-09-26T06:43:05.968Z,1000.12
2022-09-26T06:44:05.915Z,1000.12
2022-09-26T06:45:05.935Z,1000.12
2022-09-26T06:46:05.926Z,1000.10
2022-09-26T06:47:05.987Z,1000.08
2022-09-26T06:48:05.898Z,1000.11
2022-09-26T06:49:05.897Z,1000.06
2022-09-26T06:50:05.867Z,1000.10
2022-09-26T06:51:05.869Z,1000.08
2022-09-26T06:52:05.850Z,1000.08
2022-09-26T06:53:05.867Z,1000.09
2022-09-26T06:54:05.813Z,1000.13
2022-09-26T06:55:05.821Z,1000.05
2022-09-26T06:56:05.836Z,1000.06
2022-09-26T06:57:05.817Z,1000.00
2022-09-26T06:58:05.770Z,1000.01
2022-09-26T06:59:05.754Z,999.98
2022-09-26T07:00:05.765Z,1000.00
2022-09-26T07:01:05.880Z,1000.01
2022-09-26T07:02:05.872Z,999.95
2022-09-26T07:03:05.749Z,999.96
2022-09-26T07:04:05.761Z,999.97
2022-09-26T07:05:05.702Z,999.95
2022-09-26T07:06:05.681Z,999.96
2022-09-26T07:07:05.689Z,999.89
2022-09-26T07:08:05.661Z,999.91
2022-09-26T07:09:11.287Z,999.94
2022-09-26T07:10:06.669Z,999.95
2022-09-26T07:11:28.273Z,999.97
2022-09-26T07:12:15.279Z,999.94
2022-09-26T07:13:06.708Z,999.95
2022-09-26T07:14:05.589Z,999.94
2022-09-26T07:15:05.633Z,999.96
2022-09-26T07:16:05.650Z,999.94
2022-09-26T07:17:05.610Z,999.98
2022-09-26T07:18:05.579Z,999.98
2022-09-26T07:19:05.578Z,999.95
2022-09-26T07:20:05.544Z,1000.00
2022-09-26T07:21:05.566Z,999.97
2022-09-26T07:22:05.509Z,999.96
2022-09-26T07:23:05.523Z,999.95
2022-09-26T07:24:05.499Z,999.94
2022-09-26T07:25:05.651Z,999.91
2022-09-26T07:26:05.459Z,999.91
2022-09-26T07:27:05.539Z,999.91
2022-09-26T07:28:05.444Z,999.87
2022-09-26T07:29:05.602Z,999.88
2022-09-26T07:30:05.416Z,999.94
2022-09-26T07:31:05.541Z,999.87
2022-09-26T07:32:05.414Z,999.89
2022-09-26T07:33:05.389Z,999.87
2022-09-26T07:34:05.391Z,999.91
2022-09-26T07:35:05.386Z,999.80
2022-09-26T07:36:05.797Z,999.80
2022-09-26T07:37:05.348Z,999.75
2022-09-26T07:38:05.324Z,999.78
2022-09-26T07:39:05.313Z,999.75
2022-09-26T07:40:05.321Z,999.80
2022-09-26T07:41:05.354Z,999.76
2022-09-26T07:42:05.323Z,999.74
2022-09-26T07:43:24.151Z,999.78
2022-09-26T07:45:28.790Z,999.74
2022-09-26T07:46:06.413Z,999.78
2022-09-26T07:47:05.340Z,999.80
2022-09-26T07:48:05.212Z,999.76
2022-09-26T07:49:05.201Z,999.75
2022-09-26T07:50:05.214Z,999.73
2022-09-26T07:51:09.126Z,999.79
2022-09-26T07:52:05.212Z,999.81
2022-09-26T07:53:05.160Z,999.74
2022-09-26T07:54:05.181Z,999.78
2022-09-26T07:55:05.147Z,999.79
2022-09-26T07:56:05.133Z,999.82
2022-09-26T07:57:05.146Z,999.77
2022-09-26T07:58:05.111Z,999.80
2022-09-26T07:59:05.148Z,999.81
2022-09-26T08:00:05.084Z,999.77
2022-09-26T08:01:05.075Z,999.76
2022-09-26T08:02:05.204Z,999.73
2022-09-26T08:03:05.198Z,999.82
2022-09-26T08:04:05.038Z,999.82
2022-09-26T08:05:05.098Z,999.81
2022-09-26T08:06:05.025Z,999.80
2022-09-26T08:07:05.035Z,999.79
2022-09-26T08:08:05.059Z,999.76
2022-09-26T08:09:05.015Z,999.78
2022-09-26T08:10:04.996Z,999.85
2022-09-26T08:11:04.995Z,999.85
2022-09-26T08:12:04.971Z,999.79
2022-09-26T08:13:04.960Z,999.79
2022-09-26T08:14:04.933Z,999.82
2022-09-26T08:15:04.939Z,999.80
2022-09-26T08:16:05.051Z,999.78
2022-09-26T08:17:04.893Z,999.82
2022-09-26T08:18:04.910Z,999.77
2022-09-26T08:19:04.877Z,999.76
2022-09-26T08:20:04.874Z,999.77
2022-09-26T08:21:04.848Z,999.72
2022-09-26T08:22:04.851Z,999.72
2022-09-26T08:23:04.822Z,999.71
2022-09-26T08:24:04.851Z,999.75
2022-09-26T08:25:04.823Z,999.74
2022-09-26T08:26:04.791Z,999.72
2022-09-26T08:27:04.819Z,999.70
2022-09-26T08:28:04.781Z,999.65
2022-09-26T08:29:04.808Z,999.66
2022-09-26T08:30:04.822Z,999.64
2022-09-26T08:31:04.849Z,999.68
2022-09-26T08:32:04.760Z,999.63
2022-09-26T08:33:04.737Z,999.65
2022-09-26T08:34:04.731Z,999.71
2022-09-26T08:35:04.700Z,999.72
2022-09-26T08:36:04.688Z,999.70
2022-09-26T08:37:04.683Z,999.71
2022-09-26T08:38:04.691Z,999.71
2022-09-26T08:39:04.673Z,999.66
2022-09-26T08:40:04.672Z,999.70
2022-09-26T08:41:04.727Z,999.72
2022-09-26T08:42:04.638Z,999.68
2022-09-26T08:43:04.612Z,999.72
2022-09-26T08:44:04.605Z,999.62
2022-09-26T08:45:04.604Z,999.69
2022-09-26T08:46:04.684Z,999.72
2022-09-26T08:47:04.610Z,999.68
2022-09-26T08:48:04.552Z,999.80
2022-09-26T08:49:04.553Z,999.76
2022-09-26T08:50:04.561Z,999.77
2022-09-26T08:51:04.537Z,999.73
2022-09-26T08:52:04.532Z,999.78
2022-09-26T08:53:04.495Z,999.78
2022-09-26T08:54:04.502Z,999.76
2022-09-26T08:55:04.467Z,999.81
2022-09-26T08:56:04.571Z,999.82
2022-09-26T08:57:04.462Z,999.75
2022-09-26T08:58:04.447Z,999.79
2022-09-26T08:59:04.433Z,999.85
2022-09-26T09:00:04.417Z,999.76
2022-09-26T09:01:04.424Z,999.75
2022-09-26T09:02:04.590Z,999.75
2022-09-26T09:03:04.445Z,999.81
2022-09-26T09:04:04.412Z,999.93
2022-09-26T09:05:04.375Z,999.88
2022-09-26T09:06:04.378Z,999.81
2022-09-26T09:07:04.363Z,999.85
2022-09-26T09:08:04.419Z,999.84
2022-09-26T09:09:04.333Z,999.79
2022-09-26T09:10:04.326Z,999.48
2022-09-26T09:11:04.313Z,999.81
2022-09-26T09:12:04.339Z,999.74
2022-09-26T09:13:04.292Z,999.47
2022-09-26T09:14:04.280Z,999.77
2022-09-26T09:15:26.647Z,999.68
2022-09-26T09:16:05.325Z,999.70
2022-09-26T09:17:04.255Z,999.53
2022-09-26T09:18:04.279Z,999.73
2022-09-26T09:19:04.230Z,999.62
2022-09-26T09:20:04.215Z,999.56
2022-09-26T09:21:04.226Z,999.58
2022-09-26T09:22:04.199Z,999.64
2022-09-26T09:23:04.199Z,999.60
2022-09-26T09:24:04.194Z,999.57
2022-09-26T09:25:04.203Z,999.32
2022-09-26T09:28:08.407Z,999.48
2022-09-26T09:29:04.592Z,999.55
2022-09-26T09:30:15.697Z,999.54
2022-09-26T09:31:05.198Z,999.55
2022-09-26T09:32:04.107Z,999.52
2022-09-26T09:33:04.149Z,999.57
2022-09-26T09:34:04.097Z,999.51
2022-09-26T09:35:04.067Z,999.44
2022-09-26T09:36:04.080Z,999.33
2022-09-26T09:37:04.063Z,999.41
2022-09-26T09:38:04.043Z,999.60
2022-09-26T09:39:04.060Z,999.57
2022-09-26T09:40:04.018Z,999.58
2022-09-26T09:41:04.095Z,999.49
2022-09-26T09:42:04.001Z,999.58
2022-09-26T09:43:03.986Z,999.61
2022-09-26T09:44:03.990Z,999.56
2022-09-26T09:45:03.998Z,999.56
2022-09-26T09:46:04.028Z,999.56
2022-09-26T09:47:03.978Z,999.54
2022-09-26T09:48:03.950Z,999.56
2022-09-26T09:49:03.956Z,999.59
2022-09-26T09:50:03.923Z,999.46
2022-09-26T09:51:03.908Z,999.46
2022-09-26T09:52:03.889Z,999.12
2022-09-26T09:53:03.890Z,999.51
2022-09-26T09:54:03.898Z,999.38
2022-09-26T09:55:03.871Z,999.04
2022-09-26T09:56:06.481Z,999.13
2022-09-26T09:57:03.855Z,999.02
2022-09-26T09:58:03.837Z,999.03
2022-09-26T09:59:03.830Z,998.97
2022-09-26T10:00:03.863Z,998.98
2022-09-26T10:01:03.821Z,998.99
2022-09-26T10:02:03.806Z,998.93
2022-09-26T10:03:04.539Z,998.95
2022-09-26T10:04:03.776Z,998.86
2022-09-26T10:05:03.773Z,998.95
2022-09-26T10:06:03.786Z,998.90
2022-09-26T10:07:03.749Z,998.78
2022-09-26T10:08:03.759Z,998.85
2022-09-26T10:09:35.975Z,998.92
2022-09-26T10:10:04.712Z,998.85
2022-09-26T10:11:03.699Z,998.85
2022-09-26T10:12:03.708Z,998.72
2022-09-26T10:13:03.677Z,998.85
2022-09-26T10:14:03.679Z,998.78
2022-09-26T10:15:03.666Z,998.77
2022-09-26T10:16:03.718Z,998.78
2022-09-26T10:17:03.675Z,998.82
2022-09-26T10:18:23.396Z,998.76
2022-09-26T10:19:04.618Z,998.73
2022-09-26T10:20:03.610Z,998.73
2022-09-26T10:21:03.601Z,998.68
2022-09-26T10:22:03.633Z,998.65
2022-09-26T10:23:03.608Z,998.65
2022-09-26T10:24:03.559Z,998.67
2022-09-26T10:25:03.583Z,998.58
2022-09-26T10:26:03.571Z,998.64
2022-09-26T10:27:03.554Z,998.63
2022-09-26T10:28:03.532Z,998.60
2022-09-26T10:29:03.508Z,998.61
2022-09-26T10:30:03.504Z,998.63
2022-09-26T10:31:03.596Z,998.51
2022-09-26T10:32:03.498Z,998.57
2022-09-26T10:33:03.489Z,998.49
2022-09-26T10:34:03.456Z,998.44
2022-09-26T10:35:03.454Z,998.44
2022-09-26T10:36:03.448Z,998.48
2022-09-26T10:37:03.412Z,998.47
2022-09-26T10:38:03.402Z,998.45
2022-09-26T10:39:03.404Z,998.45
2022-09-26T10:40:03.388Z,998.43
2022-09-26T10:41:03.591Z,998.47
2022-09-26T10:42:03.409Z,998.40
2022-09-26T10:43:04.037Z,998.37
2022-09-26T10:44:03.338Z,998.37
2022-09-26T10:45:03.339Z,998.40
2022-09-26T10:46:03.466Z,998.40
2022-09-26T10:47:03.360Z,998.49
2022-09-26T10:48:03.318Z,998.42
2022-09-26T10:49:03.300Z,998.42
2022-09-26T10:50:03.269Z,998.38
2022-09-26T10:51:03.287Z,998.48
2022-09-26T10:52:03.253Z,998.40
2022-09-26T10:53:03.264Z,998.39
2022-09-26T10:54:03.246Z,998.39
2022-09-26T10:55:03.224Z,998.45
2022-09-26T10:56:03.210Z,998.38
2022-09-26T10:57:03.204Z,998.37
2022-09-26T10:58:03.182Z,998.37
2022-09-26T10:59:03.199Z,998.39
2022-09-26T11:00:03.170Z,998.33
2022-09-26T11:01:03.151Z,998.37
2022-09-26T11:02:03.197Z,998.38
2022-09-26T11:03:03.151Z,998.33
2022-09-26T11:04:03.216Z,998.36
2022-09-26T11:05:03.111Z,998.34
2022-09-26T11:06:03.104Z,998.30
2022-09-26T11:07:03.086Z,998.31
2022-09-26T11:08:03.089Z,998.32
2022-09-26T11:09:03.119Z,998.27
2022-09-26T11:10:03.087Z,998.28
2022-09-26T11:11:03.100Z,998.28
2022-09-26T11:12:03.030Z,998.25
2022-09-26T11:13:03.022Z,998.26
2022-09-26T11:14:03.008Z,998.21
2022-09-26T11:15:03.020Z,998.21
2022-09-26T11:16:03.130Z,998.21
2022-09-26T11:17:02.985Z,998.23
2022-09-26T11:18:02.964Z,998.21
2022-09-26T11:19:02.957Z,998.22
2022-09-26T11:20:02.968Z,998.23
2022-09-26T11:21:02.971Z,998.17
2022-09-26T11:22:07.295Z,998.15
2022-09-26T11:23:03.923Z,998.12
2022-09-26T11:24:02.910Z,998.13
2022-09-26T11:25:02.896Z,998.09
2022-09-26T11:26:02.894Z,998.08
2022-09-26T11:27:02.874Z,998.08
2022-09-26T11:28:02.854Z,998.04
2022-09-26T11:29:02.956Z,998.02
2022-09-26T11:30:02.849Z,998.03
2022-09-26T11:31:02.884Z,998.01
2022-09-26T11:32:02.830Z,998.05
2022-09-26T11:33:02.824Z,998.06
2022-09-26T11:34:02.798Z,998.07
2022-09-26T11:35:02.787Z,997.96
2022-09-26T11:36:02.785Z,998.01
2022-09-26T11:37:02.768Z,998.04
2022-09-26T11:38:02.785Z,997.96
2022-09-26T11:39:02.755Z,997.96
2022-09-26T11:40:06.085Z,997.96
2022-09-26T11:41:03.797Z,997.93
2022-09-26T11:42:02.707Z,997.88
2022-09-26T11:43:02.696Z,997.83
2022-09-26T11:44:02.699Z,997.85
2022-09-26T11:45:02.681Z,997.88
2022-09-26T11:46:02.759Z,997.90
2022-09-26T11:47:02.649Z,997.85
2022-09-26T11:48:02.643Z,997.80
2022-09-26T11:49:02.621Z,997.82
2022-09-26T11:50:02.630Z,997.78
2022-09-26T11:51:02.625Z,997.79
2022-09-26T11:52:02.639Z,997.82
2022-09-26T11:53:02.585Z,997.77
2022-09-26T11:54:02.594Z,997.78
2022-09-26T11:55:02.559Z,997.87
2022-09-26T11:56:02.560Z,997.78
2022-09-26T11:57:02.564Z,997.81
2022-09-26T11:58:03.640Z,997.82
2022-09-26T11:59:02.551Z,997.73
2022-09-26T12:00:02.504Z,997.69
2022-09-26T12:01:02.495Z,997.73
2022-09-26T12:02:02.482Z,997.75
2022-09-26T12:03:02.609Z,997.71
2022-09-26T12:04:02.587Z,997.78
2022-09-26T12:05:02.521Z,997.65
2022-09-26T12:06:02.448Z,997.65
2022-09-26T12:07:02.457Z,997.67
2022-09-26T12:08:02.430Z,997.66
2022-09-26T12:09:02.406Z,997.65
2022-09-26T12:10:02.391Z,997.65
2022-09-26T12:11:02.394Z,997.68
2022-09-26T12:12:02.434Z,997.60
2022-09-26T12:13:02.368Z,997.47
2022-09-26T12:14:02.361Z,997.46
2022-09-26T12:15:02.430Z,997.51
2022-09-26T12:16:02.465Z,997.52
2022-09-26T12:17:02.348Z,997.46
2022-09-26T12:18:02.308Z,997.46